TimeMST,TemperatureF,Dew PointF,Humidity,Sea Level PressureIn,VisibilityMPH,Wind Direction,Wind SpeedMPH,Gust SpeedMPH,PrecipitationIn,Events,Conditions,WindDirDegrees,DateUTC
12:15 AM,30.2,10.4,44,29.91,10.0,Calm,Calm,-,N/A,,Clear,0,2013-02-05 07:15:00
12:55 AM,28.4,12.2,51,29.91,10.0,Calm,Calm,-,N/A,,Clear,0,2013-02-05 07:55:00
1:15 AM,32.0,12.2,44,29.91,10.0,SSE,3.5,-,N/A,,Clear,150,2013-02-05 08:15:00
1:35 AM,28.4,10.4,47,29.91,10.0,ENE,9.2,-,N/A,,Clear,70,2013-02-05 08:35:00
1:55 AM,30.2,14.0,51,29.92,10.0,Calm,Calm,-,N/A,,Clear,0,2013-02-05 08:55:00
2:15 AM,21.2,8.6,58,29.94,10.0,North,9.2,-,N/A,,Clear,360,2013-02-05 09:15:00
2:35 AM,24.8,12.2,59,29.94,10.0,North,3.5,-,N/A,,Clear,10,2013-02-05 09:35:00
2:55 AM,26.6,14.0,59,29.95,10.0,North,6.9,-,N/A,,Clear,10,2013-02-05 09:55:00
3:15 AM,24.8,15.8,69,29.94,10.0,Calm,Calm,-,N/A,,Clear,0,2013-02-05 10:15:00
3:35 AM,24.8,15.8,69,29.94,10.0,Calm,Calm,-,N/A,,Clear,0,2013-02-05 10:35:00
3:55 AM,26.6,12.2,55,29.95,10.0,Calm,Calm,-,N/A,,Clear,0,2013-02-05 10:55:00
4:15 AM,24.8,10.4,54,29.96,10.0,Calm,Calm,-,N/A,,Clear,0,2013-02-05 11:15:00
4:35 AM,24.8,10.4,54,29.97,10.0,NE,5.8,-,N/A,,Clear,40,2013-02-05 11:35:00
4:55 AM,23.0,12.2,63,29.98,10.0,WNW,5.8,-,N/A,,Clear,300,2013-02-05 11:55:00
5:15 AM,21.2,12.2,68,29.99,10.0,North,4.6,-,N/A,,Clear,350,2013-02-05 12:15:00
5:35 AM,24.8,15.8,69,29.99,10.0,Calm,Calm,-,N/A,,Clear,0,2013-02-05 12:35:00
5:55 AM,24.8,15.8,69,29.99,10.0,Calm,Calm,-,N/A,,Clear,0,2013-02-05 12:55:00
6:15 AM,24.8,14.0,64,30.00,10.0,Calm,Calm,-,N/A,,Clear,0,2013-02-05 13:15:00
6:35 AM,21.2,12.2,68,30.00,10.0,West,5.8,-,N/A,,Clear,270,2013-02-05 13:35:00
6:55 AM,24.8,14.0,64,30.01,10.0,WNW,3.5,-,N/A,,Clear,300,2013-02-05 13:55:00
7:15 AM,28.4,15.8,59,30.02,10.0,South,4.6,-,N/A,,Clear,170,2013-02-05 14:15:00
7:35 AM,21.2,10.4,63,30.02,10.0,South,6.9,-,N/A,,Clear,190,2013-02-05 14:35:00
7:55 AM,24.8,15.8,69,30.03,10.0,SSW,5.8,-,N/A,,Clear,200,2013-02-05 14:55:00
8:15 AM,30.2,17.6,60,30.03,10.0,South,6.9,-,N/A,,Clear,190,2013-02-05 15:15:00
8:35 AM,33.8,19.4,56,30.03,10.0,South,6.9,-,N/A,,Clear,190,2013-02-05 15:35:00
8:55 AM,37.4,17.6,45,30.04,10.0,SSW,5.8,-,N/A,,Clear,210,2013-02-05 15:55:00
9:15 AM,42.8,19.4,39,30.03,10.0,South,11.5,-,N/A,,Clear,190,2013-02-05 16:15:00
9:35 AM,44.6,17.6,34,30.05,10.0,SSE,11.5,-,N/A,,Clear,160,2013-02-05 16:35:00
10:15 AM,44.6,19.4,37,30.06,10.0,ESE,13.8,-,N/A,,Clear,120,2013-02-05 17:15:00
10:35 AM,42.8,19.4,39,30.06,10.0,SE,10.4,-,N/A,,Clear,130,2013-02-05 17:35:00
10:55 AM,44.6,19.4,37,30.07,10.0,SE,8.1,-,N/A,,Clear,140,2013-02-05 17:55:00
11:15 AM,46.4,19.4,34,30.05,10.0,SE,10.4,-,N/A,,Clear,130,2013-02-05 18:15:00
11:35 AM,46.4,21.2,37,30.04,10.0,South,10.4,-,N/A,,Clear,170,2013-02-05 18:35:00
11:55 AM,48.2,21.2,34,30.03,10.0,SSE,9.2,-,N/A,,Clear,150,2013-02-05 18:55:00
12:15 PM,48.2,21.2,34,30.01,10.0,SE,10.4,-,N/A,,Clear,130,2013-02-05 19:15:00
12:35 PM,50.0,21.2,32,29.99,10.0,SSE,9.2,16.1,N/A,,Clear,160,2013-02-05 19:35:00
12:55 PM,53.6,21.2,28,29.97,10.0,ESE,10.4,-,N/A,,Clear,120,2013-02-05 19:55:00
1:15 PM,53.6,19.4,26,29.96,10.0,SSE,9.2,-,N/A,,Clear,150,2013-02-05 20:15:00
1:35 PM,55.4,19.4,25,29.94,10.0,South,13.8,-,N/A,,Clear,170,2013-02-05 20:35:00
1:55 PM,55.4,21.2,26,29.93,10.0,SE,5.8,-,N/A,,Clear,130,2013-02-05 20:55:00
2:15 PM,55.4,19.4,25,29.92,10.0,South,6.9,-,N/A,,Clear,190,2013-02-05 21:15:00
2:35 PM,55.4,19.4,25,29.92,10.0,South,6.9,-,N/A,,Clear,170,2013-02-05 21:35:00
2:55 PM,55.4,21.2,26,29.91,10.0,South,4.6,-,N/A,,Clear,180,2013-02-05 21:55:00
3:15 PM,57.2,21.2,25,29.91,10.0,South,6.9,-,N/A,,Clear,180,2013-02-05 22:15:00
3:35 PM,55.4,19.4,25,29.91,10.0,SW,5.8,-,N/A,,Clear,230,2013-02-05 22:35:00
3:55 PM,55.4,19.4,25,29.90,10.0,WSW,3.5,-,N/A,,Clear,250,2013-02-05 22:55:00
4:35 PM,51.8,19.4,28,29.89,10.0,Calm,Calm,-,N/A,,Clear,0,2013-02-05 23:35:00
4:55 PM,53.6,19.4,26,29.89,10.0,North,4.6,-,N/A,,Clear,10,2013-02-05 23:55:00
5:15 PM,51.8,19.4,28,29.88,10.0,NNE,5.8,-,N/A,,Clear,20,2013-02-06 00:15:00
5:35 PM,48.2,19.4,32,29.88,10.0,NE,6.9,-,N/A,,Clear,40,2013-02-06 00:35:00
5:55 PM,48.2,19.4,32,29.88,10.0,NNE,9.2,-,N/A,,Clear,30,2013-02-06 00:55:00
6:15 PM,46.4,19.4,34,29.88,10.0,North,6.9,-,N/A,,Clear,350,2013-02-06 01:15:00
6:35 PM,42.8,19.4,39,29.88,10.0,North,8.1,-,N/A,,Clear,360,2013-02-06 01:35:00
6:55 PM,42.8,19.4,39,29.89,10.0,North,9.2,-,N/A,,Clear,350,2013-02-06 01:55:00
7:15 PM,42.8,19.4,39,29.89,10.0,North,8.1,-,N/A,,Clear,350,2013-02-06 02:15:00
7:35 PM,42.8,19.4,39,29.88,10.0,North,6.9,-,N/A,,Clear,360,2013-02-06 02:35:00
7:55 PM,42.8,19.4,39,29.88,10.0,North,5.8,-,N/A,,Clear,10,2013-02-06 02:55:00
8:15 PM,42.8,19.4,39,29.87,10.0,North,6.9,-,N/A,,Clear,360,2013-02-06 03:15:00
8:35 PM,42.8,19.4,39,29.87,10.0,NNW,9.2,-,N/A,,Clear,340,2013-02-06 03:35:00
8:55 PM,39.2,19.4,45,29.87,10.0,North,5.8,-,N/A,,Clear,350,2013-02-06 03:55:00
9:15 PM,39.2,19.4,45,29.87,10.0,North,6.9,-,N/A,,Clear,360,2013-02-06 04:15:00
9:35 PM,39.2,19.4,45,29.86,10.0,North,4.6,-,N/A,,Clear,10,2013-02-06 04:35:00
9:55 PM,39.2,19.4,45,29.86,10.0,North,6.9,-,N/A,,Clear,350,2013-02-06 04:55:00
10:35 PM,41.0,19.4,42,29.85,10.0,North,9.2,-,N/A,,Clear,10,2013-02-06 05:35:00
10:55 PM,39.2,19.4,45,29.85,10.0,NNE,3.5,-,N/A,,Clear,20,2013-02-06 05:55:00
11:15 PM,39.2,19.4,45,29.85,10.0,NNE,6.9,-,N/A,,Clear,20,2013-02-06 06:15:00
11:35 PM,37.4,19.4,48,29.85,10.0,NE,8.1,-,N/A,,Clear,40,2013-02-06 06:35:00
11:55 PM,37.4,19.4,48,29.85,10.0,NNE,8.1,-,N/A,,Clear,30,2013-02-06 06:55:00